Time;durP1;ratioP1;P1;durP2;ratioP2;P2;SDS_P1;SDS_P2;PMS_P1;PMS_P2;Temp;Humidity;BMP_temperature;BMP_pressure;BME280_temperature;BME280_humidity;BME280_pressure;Samples;Min_cycle;Max_cycle;Signal;HPM_P1;HPM_P2
2021/08/03 00:01:33;;;;;;;;;;;;;;;25.43;51.54;94632.25;2950354;40;19945;-81
2021/08/03 00:03:50;;;;;;;;;;;;;;;25.45;51.55;94627.47;2945615;40;19963;-79
2021/08/03 00:06:09;;;;;;;;;;;;;;;25.31;51.57;94630.53;2952162;40;19936;-80
2021/08/03 00:08:40;;;;;;;;;;;;;;;25.29;51.76;94621.13;2940444;40;19937;-78
2021/08/03 00:10:42;;;;;;;;;;;;;;;25.34;51.50;94621.19;2951877;40;20316;-81
2021/08/03 00:12:50;;;;;;;;;;;;;;;25.25;51.71;94634.25;2941905;40;19957;-80
2021/08/03 00:14:52;;;;;;;;;;;;;;;25.18;51.87;94622.84;2950805;40;19949;-80
2021/08/03 00:16:54;;;;;;;;;;;;;;;25.22;51.69;94620.53;2952869;40;20087;-81
2021/08/03 00:18:56;;;;;;;;;;;;;;;25.20;51.74;94634.16;2951013;40;19952;-80
2021/08/03 00:20:59;;;;;;;;;;;;;;;25.20;51.59;94631.50;2950033;40;19941;-79
2021/08/03 00:23:01;;;;;;;;;;;;;;;25.16;51.80;94635.69;2947349;40;19956;-80
2021/08/03 00:25:03;;;;;;;;;;;;;;;25.11;51.94;94633.78;2949665;40;19941;-80
2021/08/03 00:27:05;;;;;;;;;;;;;;;25.16;51.92;94641.06;2953721;40;20034;-80
2021/08/03 00:29:06;;;;;;;;;;;;;;;25.11;52.13;94638.34;2947787;40;19941;-79
2021/08/03 00:31:08;;;;;;;;;;;;;;;25.09;52.07;94640.47;2953567;40;19973;-80
2021/08/03 00:33:10;;;;;;;;;;;;;;;25.10;52.11;94634.03;2941567;40;20036;-79
2021/08/03 00:35:11;;;;;;;;;;;;;;;25.10;52.21;94626.81;2948469;40;19949;-81
2021/08/03 00:37:14;;;;;;;;;;;;;;;25.05;52.04;94631.28;2952278;40;19960;-79
2021/08/03 00:39:15;;;;;;;;;;;;;;;25.06;52.21;94640.94;2949004;40;19934;-80
2021/08/03 00:41:21;;;;;;;;;;;;;;;25.01;52.55;94639.00;2940938;40;19949;-69
2021/08/03 00:43:22;;;;;;;;;;;;;;;25.05;52.35;94639.34;2946914;40;19953;-68
2021/08/03 00:45:24;;;;;;;;;;;;;;;25.01;52.41;94640.91;2954174;40;19952;-68
2021/08/03 00:47:26;;;;;;;;;;;;;;;25.03;52.48;94633.41;2950193;40;19941;-78
2021/08/03 00:49:27;;;;;;;;;;;;;;;25.01;52.46;94632.84;2939261;40;20031;-81
2021/08/03 00:51:29;;;;;;;;;;;;;;;25.07;52.28;94629.97;2949432;40;20034;-80
2021/08/03 00:53:30;;;;;;;;;;;;;;;24.87;52.81;94635.91;2939869;40;20022;-80
2021/08/03 00:55:32;;;;;;;;;;;;;;;24.84;52.97;94633.72;2950463;40;19952;-79
2021/08/03 00:57:34;;;;;;;;;;;;;;;24.84;52.76;94631.03;2948901;40;19949;-80
2021/08/03 00:59:35;;;;;;;;;;;;;;;24.78;52.90;94632.06;2953565;40;19945;-79
2021/08/03 01:01:37;;;;;;;;;;;;;;;24.82;52.72;94638.53;2949585;40;20450;-80
2021/08/03 01:03:38;;;;;;;;;;;;;;;24.87;52.59;94637.81;2955743;40;19941;-80
2021/08/03 01:05:41;;;;;;;;;;;;;;;24.80;52.72;94638.00;2955703;40;19949;-79
2021/08/03 01:07:58;;;;;;;;;;;;;;;24.70;52.66;94645.88;2942768;40;20222;-79
2021/08/03 01:09:59;;;;;;;;;;;;;;;24.66;52.80;94642.09;2955453;40;20348;-80
2021/08/03 01:12:04;;;;;;;;;;;;;;;24.69;52.60;94631.69;2951338;40;19969;-79
2021/08/03 01:14:25;;;;;;;;;;;;;;;24.60;53.04;94633.16;2951915;40;19968;-80
2021/08/03 01:16:30;;;;;;;;;;;;;;;24.56;52.87;94641.94;2949905;40;19948;-77
2021/08/03 01:18:34;;;;;;;;;;;;;;;24.52;52.80;94650.50;2950437;40;19945;-80
2021/08/03 01:20:40;;;;;;;;;;;;;;;24.52;53.14;94658.53;2951490;40;19953;-80
2021/08/03 01:22:56;;;;;;;;;;;;;;;24.47;52.99;94660.28;2950720;40;20027;-79
2021/08/03 01:24:57;;;;;;;;;;;;;;;24.49;52.95;94659.00;2951105;40;19969;-68
2021/08/03 01:27:11;;;;;;;;;;;;;;;24.60;52.51;94659.94;2955862;40;19941;-68
2021/08/03 01:29:13;;;;;;;;;;;;;;;24.55;52.74;94662.56;2952520;40;20234;-69
2021/08/03 01:31:45;;;;;;;;;;;;;;;24.51;52.97;94656.09;2949095;40;19946;-69
2021/08/03 01:33:48;;;;;;;;;;;;;;;24.57;52.59;94654.28;2949496;40;19948;-69
2021/08/03 01:35:50;;;;;;;;;;;;;;;24.42;52.96;94666.38;2949188;40;19952;-69
2021/08/03 01:37:51;;;;;;;;;;;;;;;24.46;53.10;94654.13;2954621;40;20039;-68
2021/08/03 01:39:55;;;;;;;;;;;;;;;24.33;53.20;94657.16;2951334;40;20222;-68
2021/08/03 01:41:58;;;;;;;;;;;;;;;24.44;52.75;94652.75;2949540;40;20388;-70
2021/08/03 01:44:00;;;;;;;;;;;;;;;24.55;52.53;94662.56;2950322;40;20027;-69
2021/08/03 01:46:02;;;;;;;;;;;;;;;24.56;52.55;94655.34;2949206;40;19953;-68
2021/08/03 01:48:04;;;;;;;;;;;;;;;24.59;52.49;94652.19;2950048;40;19981;-68
2021/08/03 01:50:06;;;;;;;;;;;;;;;24.58;52.34;94654.03;2948802;40;19944;-69
2021/08/03 01:52:08;;;;;;;;;;;;;;;24.55;52.70;94645.69;2946983;40;19977;-69
2021/08/03 01:54:10;;;;;;;;;;;;;;;24.53;52.59;94645.94;2939694;40;20349;-71
2021/08/03 01:56:11;;;;;;;;;;;;;;;24.47;52.39;94647.69;2947823;40;19993;-69
2021/08/03 01:58:13;;;;;;;;;;;;;;;24.44;52.48;94632.13;2949994;40;20050;-69
2021/08/03 02:00:15;;;;;;;;;;;;;;;24.44;52.53;94637.50;2941504;40;20443;-69
2021/08/03 02:02:16;;;;;;;;;;;;;;;24.45;52.19;94631.06;2950528;40;20326;-70
2021/08/03 02:04:19;;;;;;;;;;;;;;;24.51;52.24;94626.63;2947141;40;19964;-68
2021/08/03 02:06:22;;;;;;;;;;;;;;;24.53;52.12;94622.63;2953403;40;19984;-69
2021/08/03 02:08:23;;;;;;;;;;;;;;;24.49;52.00;94621.50;2949523;40;20415;-70
2021/08/03 02:10:25;;;;;;;;;;;;;;;24.51;51.81;94619.41;2949292;40;20004;-69
2021/08/03 02:12:27;;;;;;;;;;;;;;;24.43;52.07;94622.47;2950216;40;19988;-68
2021/08/03 02:14:29;;;;;;;;;;;;;;;24.46;52.19;94623.88;2941440;40;19961;-68
2021/08/03 02:16:31;;;;;;;;;;;;;;;24.51;52.00;94623.94;2946472;40;19940;-69
2021/08/03 02:18:33;;;;;;;;;;;;;;;24.57;51.82;94632.88;2950437;40;19937;-69
2021/08/03 02:20:35;;;;;;;;;;;;;;;24.59;51.77;94641.47;2945786;40;19967;-70
2021/08/03 02:22:37;;;;;;;;;;;;;;;24.59;51.63;94644.16;2949890;40;20218;-69
2021/08/03 02:24:39;;;;;;;;;;;;;;;24.63;51.51;94645.25;2949496;40;19952;-68
2021/08/03 02:26:41;;;;;;;;;;;;;;;24.53;51.73;94649.41;2950695;40;20273;-67
2021/08/03 02:28:43;;;;;;;;;;;;;;;24.53;51.82;94652.09;2949452;40;19981;-68
2021/08/03 02:30:45;;;;;;;;;;;;;;;24.57;51.54;94660.44;2948476;40;20379;-68
2021/08/03 02:32:53;;;;;;;;;;;;;;;24.52;51.78;94665.72;2949171;40;19973;-68
2021/08/03 02:35:15;;;;;;;;;;;;;;;24.57;51.47;94662.31;2944575;40;19944;-68
2021/08/03 02:37:17;;;;;;;;;;;;;;;24.61;51.52;94666.94;2950251;40;19952;-69
2021/08/03 02:39:19;;;;;;;;;;;;;;;24.58;51.56;94677.31;2948965;40;20017;-68
2021/08/03 02:41:20;;;;;;;;;;;;;;;24.62;51.35;94673.09;2937188;40;19942;-67
2021/08/03 02:43:22;;;;;;;;;;;;;;;24.58;51.42;94678.13;2952071;40;19973;-69
2021/08/03 02:45:24;;;;;;;;;;;;;;;24.62;51.43;94684.63;2948945;40;19937;-69
2021/08/03 02:47:27;;;;;;;;;;;;;;;24.65;51.46;94681.47;2950261;40;19933;-68
2021/08/03 02:49:35;;;;;;;;;;;;;;;24.65;51.63;94678.78;2949140;40;19957;-69
2021/08/03 02:51:37;;;;;;;;;;;;;;;24.65;51.46;94677.94;2950549;40;20280;-69
2021/08/03 02:53:45;;;;;;;;;;;;;;;24.55;51.67;94680.50;2954217;40;20033;-70
2021/08/03 02:55:49;;;;;;;;;;;;;;;24.49;51.96;94679.63;2941350;40;19951;-69
2021/08/03 02:57:52;;;;;;;;;;;;;;;24.55;51.48;94685.88;2949494;40;20000;-68
2021/08/03 02:59:54;;;;;;;;;;;;;;;24.46;51.92;94691.59;2942949;40;20016;-68
2021/08/03 03:01:55;;;;;;;;;;;;;;;24.43;51.82;94678.69;2943275;40;19940;-69
2021/08/03 03:03:59;;;;;;;;;;;;;;;24.41;51.68;94686.16;2938264;40;19938;-70
2021/08/03 03:06:02;;;;;;;;;;;;;;;24.42;51.80;94678.97;2939892;40;19974;-69
2021/08/03 03:08:05;;;;;;;;;;;;;;;24.42;51.84;94669.06;2941411;40;20004;-69
2021/08/03 03:10:10;;;;;;;;;;;;;;;24.48;51.73;94677.97;2950649;40;19949;-67
2021/08/03 03:12:12;;;;;;;;;;;;;;;24.56;51.67;94676.75;2954149;40;19947;-78
2021/08/03 03:14:13;;;;;;;;;;;;;;;24.61;51.59;94682.19;2944562;40;19945;-80
2021/08/03 03:16:16;;;;;;;;;;;;;;;24.64;51.44;94685.19;2950591;40;21585;-81
2021/08/03 03:18:18;;;;;;;;;;;;;;;24.64;51.56;94687.84;2942276;40;19948;-80
2021/08/03 03:20:20;;;;;;;;;;;;;;;24.63;51.26;94685.41;2941630;40;19941;-80
2021/08/03 03:22:21;;;;;;;;;;;;;;;24.67;50.96;94697.25;2950609;40;19957;-79
2021/08/03 03:24:23;;;;;;;;;;;;;;;24.69;50.95;94700.50;2949239;40;20174;-79
2021/08/03 03:26:25;;;;;;;;;;;;;;;24.69;51.06;94703.19;2949352;40;19948;-81
2021/08/03 03:28:30;;;;;;;;;;;;;;;24.64;51.18;94698.56;2947235;40;19949;-80
2021/08/03 03:30:31;;;;;;;;;;;;;;;24.71;50.97;94698.38;2940586;40;19950;-80
2021/08/03 03:32:33;;;;;;;;;;;;;;;24.71;50.81;94703.75;2946932;40;20330;-80
2021/08/03 03:34:34;;;;;;;;;;;;;;;24.71;51.02;94698.38;2946418;40;19948;-80
2021/08/03 03:36:36;;;;;;;;;;;;;;;24.72;50.94;94702.72;2948412;40;19944;-78
2021/08/03 03:38:38;;;;;;;;;;;;;;;24.76;50.83;94705.69;2945265;40;19949;-80
2021/08/03 03:40:40;;;;;;;;;;;;;;;24.72;50.88;94711.53;2948649;40;19933;-79
2021/08/03 03:42:41;;;;;;;;;;;;;;;24.70;50.93;94710.19;2949320;40;19952;-80
2021/08/03 03:44:43;;;;;;;;;;;;;;;24.62;50.92;94721.31;2940901;40;19949;-81
2021/08/03 03:46:54;;;;;;;;;;;;;;;24.67;51.24;94718.69;2949835;40;20039;-81
2021/08/03 03:49:03;;;;;;;;;;;;;;;24.76;50.89;94721.75;2946458;40;20305;-81
2021/08/03 03:51:05;;;;;;;;;;;;;;;24.73;51.10;94720.38;2945435;40;19993;-81
2021/08/03 03:53:07;;;;;;;;;;;;;;;24.82;50.65;94721.56;2945866;40;19940;-81
2021/08/03 03:55:09;;;;;;;;;;;;;;;24.90;50.45;94723.84;2948906;40;19991;-80
2021/08/03 03:57:11;;;;;;;;;;;;;;;24.81;50.42;94725.31;2948922;40;20241;-81
2021/08/03 03:59:15;;;;;;;;;;;;;;;24.77;50.78;94731.44;2950112;40;20039;-80
2021/08/03 04:01:18;;;;;;;;;;;;;;;24.67;50.85;94724.88;2941403;40;19949;-79
2021/08/03 04:03:20;;;;;;;;;;;;;;;24.75;50.77;94737.03;2943469;40;19981;-81
2021/08/03 04:05:21;;;;;;;;;;;;;;;24.81;50.55;94741.41;2937159;40;19961;-79
2021/08/03 04:07:23;;;;;;;;;;;;;;;24.89;50.25;94738.31;2951973;40;19949;-78
2021/08/03 04:09:27;;;;;;;;;;;;;;;24.94;50.27;94742.91;2957777;40;19943;-79
2021/08/03 04:11:28;;;;;;;;;;;;;;;24.92;50.35;94747.72;2954819;40;20050;-82
2021/08/03 04:13:30;;;;;;;;;;;;;;;24.91;50.18;94740.75;2951908;40;19949;-81
2021/08/03 04:15:32;;;;;;;;;;;;;;;24.84;50.51;94746.25;2944529;40;20317;-81
2021/08/03 04:17:33;;;;;;;;;;;;;;;24.78;50.84;94743.75;2948910;40;19989;-81
2021/08/03 04:19:35;;;;;;;;;;;;;;;24.71;50.79;94742.06;2948027;40;19961;-80
2021/08/03 04:21:36;;;;;;;;;;;;;;;24.80;50.71;94747.84;2953634;40;20278;-81
2021/08/03 04:23:38;;;;;;;;;;;;;;;24.78;50.90;94747.25;2951883;40;20292;-82
2021/08/03 04:25:40;;;;;;;;;;;;;;;24.80;50.61;94750.50;2951922;40;20092;-80
2021/08/03 04:27:41;;;;;;;;;;;;;;;24.82;50.75;94740.31;2952406;40;19941;-81
2021/08/03 04:29:43;;;;;;;;;;;;;;;24.75;50.78;94747.75;2949539;40;19945;-80
2021/08/03 04:31:44;;;;;;;;;;;;;;;24.74;50.74;94740.78;2949840;40;20023;-80
2021/08/03 04:33:46;;;;;;;;;;;;;;;24.71;50.89;94747.41;2949600;40;19942;-81
2021/08/03 04:35:48;;;;;;;;;;;;;;;24.80;50.70;94755.88;2947023;40;20021;-80
2021/08/03 04:37:49;;;;;;;;;;;;;;;24.83;50.81;94754.56;2953101;40;19948;-82
2021/08/03 04:39:51;;;;;;;;;;;;;;;24.98;50.11;94751.28;2942269;40;19941;-80
2021/08/03 04:41:52;;;;;;;;;;;;;;;25.05;50.12;94749.22;2949428;40;19945;-80
2021/08/03 04:43:54;;;;;;;;;;;;;;;25.04;50.07;94755.66;2950661;40;20028;-79
2021/08/03 04:45:56;;;;;;;;;;;;;;;25.04;49.96;94745.75;2946035;40;19945;-80
2021/08/03 04:47:58;;;;;;;;;;;;;;;25.05;49.93;94752.69;2951172;40;19981;-81
2021/08/03 04:50:00;;;;;;;;;;;;;;;25.05;49.80;94759.94;2951009;40;19951;-80
2021/08/03 04:52:04;;;;;;;;;;;;;;;25.08;49.85;94751.38;2953213;40;20035;-80
2021/08/03 04:54:07;;;;;;;;;;;;;;;25.10;49.74;94757.31;2952481;40;19941;-80
2021/08/03 04:56:09;;;;;;;;;;;;;;;25.02;49.64;94752.41;2954056;40;19989;-80
2021/08/03 04:58:10;;;;;;;;;;;;;;;25.10;49.38;94750.09;2952647;40;19944;-82
2021/08/03 05:00:13;;;;;;;;;;;;;;;25.17;49.71;94752.59;2951850;40;19945;-81
2021/08/03 05:02:14;;;;;;;;;;;;;;;25.15;49.54;94752.03;2951301;40;19981;-81
2021/08/03 05:04:16;;;;;;;;;;;;;;;24.63;50.99;94763.09;2949518;40;19944;-79
2021/08/03 05:06:17;;;;;;;;;;;;;;;24.60;50.79;94766.28;2954279;40;20281;-81
2021/08/03 05:08:19;;;;;;;;;;;;;;;24.61;50.65;94760.69;2955144;40;19996;-81
2021/08/03 05:10:21;;;;;;;;;;;;;;;24.72;50.52;94758.97;2949372;40;19949;-81
2021/08/03 05:12:22;;;;;;;;;;;;;;;24.72;50.58;94759.75;2954358;40;20110;-80
2021/08/03 05:14:24;;;;;;;;;;;;;;;24.85;50.03;94753.25;2953569;40;20039;-79
2021/08/03 05:16:26;;;;;;;;;;;;;;;24.76;50.34;94759.25;2951724;40;20509;-80
2021/08/03 05:18:28;;;;;;;;;;;;;;;24.72;50.52;94758.97;2955880;40;20050;-81
2021/08/03 05:20:29;;;;;;;;;;;;;;;24.68;50.96;94764.00;2955083;40;19949;-80
2021/08/03 05:22:31;;;;;;;;;;;;;;;24.50;51.11;94773.09;2952786;40;20037;-79
2021/08/03 05:24:32;;;;;;;;;;;;;;;24.68;50.65;94771.22;2951993;40;20329;-82
2021/08/03 05:26:34;;;;;;;;;;;;;;;24.76;50.57;94778.00;2951905;40;20356;-80
2021/08/03 05:28:35;;;;;;;;;;;;;;;24.95;49.87;94779.34;2952698;40;20296;-82
2021/08/03 05:30:37;;;;;;;;;;;;;;;25.09;49.45;94777.16;2948039;40;19943;-80
2021/08/03 05:32:38;;;;;;;;;;;;;;;25.11;49.48;94770.47;2948188;40;19983;-80
2021/08/03 05:34:40;;;;;;;;;;;;;;;25.25;49.06;94768.28;2951481;40;19953;-81
2021/08/03 05:36:42;;;;;;;;;;;;;;;25.26;49.03;94759.16;2951096;40;19937;-81
2021/08/03 05:38:43;;;;;;;;;;;;;;;24.55;50.91;94775.03;2949620;40;19946;-80
2021/08/03 05:40:46;;;;;;;;;;;;;;;24.36;51.45;94782.47;2950212;40;20019;-81
2021/08/03 05:42:48;;;;;;;;;;;;;;;24.56;51.08;94781.19;2949673;40;19937;-80
2021/08/03 05:44:49;;;;;;;;;;;;;;;24.60;51.03;94776.97;2952110;40;20318;-81
2021/08/03 05:46:51;;;;;;;;;;;;;;;24.69;51.11;94788.91;2955428;40;20290;-68
2021/08/03 05:48:52;;;;;;;;;;;;;;;24.28;51.63;94778.31;2955884;40;19941;-69
2021/08/03 05:50:54;;;;;;;;;;;;;;;24.16;51.98;94782.16;2950051;40;20037;-69
2021/08/03 05:52:55;;;;;;;;;;;;;;;24.12;52.38;94781.81;2940897;40;19933;-69
2021/08/03 05:54:57;;;;;;;;;;;;;;;23.89;52.68;94790.75;2954746;40;20155;-68
2021/08/03 05:56:58;;;;;;;;;;;;;;;24.00;52.69;94783.72;2953195;40;20282;-68
2021/08/03 05:59:00;;;;;;;;;;;;;;;23.73;53.51;94783.50;2950979;40;19938;-69
2021/08/03 06:01:02;;;;;;;;;;;;;;;23.57;53.52;94785.84;2942962;40;19950;-68
2021/08/03 06:03:03;;;;;;;;;;;;;;;23.49;54.06;94780.91;2954207;40;19941;-81
2021/08/03 06:05:05;;;;;;;;;;;;;;;23.59;53.65;94788.31;2951456;40;20344;-81
2021/08/03 06:07:08;;;;;;;;;;;;;;;23.57;53.88;94780.50;2951578;40;20023;-80
2021/08/03 06:09:10;;;;;;;;;;;;;;;23.79;53.38;94787.91;2956820;40;19948;-81
2021/08/03 06:11:16;;;;;;;;;;;;;;;23.86;53.33;94797.41;2950557;40;19943;-83
2021/08/03 06:13:18;;;;;;;;;;;;;;;23.79;53.62;94787.91;2954112;40;19960;-81
2021/08/03 06:15:20;;;;;;;;;;;;;;;23.98;52.83;94792.00;2952362;40;19949;-79
2021/08/03 06:17:27;;;;;;;;;;;;;;;24.07;52.91;94795.91;2951689;40;20372;-85
2021/08/03 06:19:29;;;;;;;;;;;;;;;24.12;52.35;94795.19;2951118;40;19933;-80
2021/08/03 06:21:31;;;;;;;;;;;;;;;24.26;52.15;94783.13;2941492;40;20364;-81
2021/08/03 06:23:32;;;;;;;;;;;;;;;24.51;51.66;94787.28;2940734;40;20157;-70
2021/08/03 06:25:34;;;;;;;;;;;;;;;24.66;51.60;94790.22;2949170;40;20277;-69
2021/08/03 06:27:35;;;;;;;;;;;;;;;24.65;51.29;94785.91;2951201;40;19948;-68
2021/08/03 06:29:39;;;;;;;;;;;;;;;24.47;52.22;94794.16;2951466;40;20149;-69
2021/08/03 06:31:41;;;;;;;;;;;;;;;24.51;51.98;94792.66;2950315;40;19991;-80
2021/08/03 06:33:43;;;;;;;;;;;;;;;24.68;51.98;94788.09;2950073;40;20063;-81
2021/08/03 06:35:45;;;;;;;;;;;;;;;24.65;51.95;94795.78;2948116;40;20035;-82
2021/08/03 06:37:47;;;;;;;;;;;;;;;24.76;51.53;94789.56;2950882;40;19965;-81
2021/08/03 06:39:48;;;;;;;;;;;;;;;24.80;51.53;94781.81;2949056;40;20277;-81
2021/08/03 06:41:50;;;;;;;;;;;;;;;24.80;51.58;94781.81;2950898;40;19997;-81
2021/08/03 06:43:55;;;;;;;;;;;;;;;24.74;51.71;94797.03;2942164;40;20030;-81
2021/08/03 06:46:17;;;;;;;;;;;;;;;24.69;51.85;94797.78;2955092;40;19937;-80
2021/08/03 06:48:19;;;;;;;;;;;;;;;24.73;51.91;94787.34;2951274;40;19967;-81
2021/08/03 06:50:22;;;;;;;;;;;;;;;24.79;52.18;94790.94;2944129;40;20302;-81
2021/08/03 06:52:24;;;;;;;;;;;;;;;24.92;51.73;94795.94;2947687;40;19961;-79
2021/08/03 06:54:27;;;;;;;;;;;;;;;24.98;51.42;94794.16;2950302;40;20392;-80
2021/08/03 06:56:29;;;;;;;;;;;;;;;24.86;51.87;94795.03;2950205;40;20312;-81
2021/08/03 06:58:40;;;;;;;;;;;;;;;25.12;51.29;94787.38;2948071;40;20042;-80
2021/08/03 07:00:42;;;;;;;;;;;;;;;25.58;50.25;94787.97;2948358;40;19995;-79
2021/08/03 07:02:44;;;;;;;;;;;;;;;25.59;50.11;94794.94;2950120;40;20360;-81
2021/08/03 07:04:50;;;;;;;;;;;;;;;25.38;50.39;94804.63;2948680;40;20023;-82
2021/08/03 07:06:56;;;;;;;;;;;;;;;25.17;50.86;94803.53;2948983;40;19941;-81
2021/08/03 07:08:58;;;;;;;;;;;;;;;25.30;50.91;94795.16;2951251;40;19943;-83
2021/08/03 07:10:59;;;;;;;;;;;;;;;25.52;50.21;94805.88;2954782;40;19943;-81
2021/08/03 07:13:01;;;;;;;;;;;;;;;25.43;50.37;94812.75;2941723;40;19954;-71
2021/08/03 07:15:02;;;;;;;;;;;;;;;25.36;50.18;94812.13;2950784;40;20042;-71
2021/08/03 07:17:05;;;;;;;;;;;;;;;25.39;50.21;94816.97;2953177;40;19952;-71
2021/08/03 07:19:06;;;;;;;;;;;;;;;25.41;50.15;94806.00;2943295;40;19973;-68
2021/08/03 07:21:10;;;;;;;;;;;;;;;25.73;49.84;94806.94;2941132;40;20043;-72
2021/08/03 07:23:12;;;;;;;;;;;;;;;26.04;48.88;94809.97;2946246;40;20023;-69
2021/08/03 07:25:14;;;;;;;;;;;;;;;25.62;48.71;94804.38;2950431;40;20471;-73
2021/08/03 07:27:15;;;;;;;;;;;;;;;25.61;49.05;94808.94;2942179;40;19945;-71
2021/08/03 07:29:17;;;;;;;;;;;;;;;25.75;48.95;94809.38;2945537;40;20273;-71
2021/08/03 07:31:18;;;;;;;;;;;;;;;25.94;48.63;94817.91;2951525;40;19943;-72
2021/08/03 07:33:20;;;;;;;;;;;;;;;26.03;48.78;94812.88;2944332;40;20325;-69
2021/08/03 07:35:21;;;;;;;;;;;;;;;26.18;48.22;94814.91;2953835;40;19949;-69
2021/08/03 07:37:23;;;;;;;;;;;;;;;26.58;46.97;94803.75;2949647;40;19963;-70
2021/08/03 07:39:25;;;;;;;;;;;;;;;26.85;46.23;94805.59;2952633;40;20265;-71
2021/08/03 07:41:27;;;;;;;;;;;;;;;27.12;45.81;94813.53;2951895;40;19956;-70
2021/08/03 07:43:28;;;;;;;;;;;;;;;27.27;45.01;94802.88;2948309;40;20026;-69
2021/08/03 07:45:30;;;;;;;;;;;;;;;27.36;44.58;94804.03;2949525;40;19941;-70
2021/08/03 07:47:33;;;;;;;;;;;;;;;27.52;44.07;94804.09;2948654;40;20032;-70
2021/08/03 07:49:34;;;;;;;;;;;;;;;27.30;44.39;94804.28;2942028;40;20397;-69
2021/08/03 07:51:36;;;;;;;;;;;;;;;27.01;44.92;94798.41;2945169;40;20250;-70
2021/08/03 07:53:37;;;;;;;;;;;;;;;27.18;44.37;94789.09;2951775;40;20167;-70
2021/08/03 07:55:39;;;;;;;;;;;;;;;27.23;44.64;94796.41;2950150;40;19976;-69
2021/08/03 07:57:40;;;;;;;;;;;;;;;27.21;44.26;94785.09;2949210;40;19933;-70
2021/08/03 07:59:42;;;;;;;;;;;;;;;27.48;43.83;94786.84;2953259;40;20399;-70
2021/08/03 08:01:44;;;;;;;;;;;;;;;27.02;43.77;94787.41;2941387;40;20027;-70
2021/08/03 08:03:46;;;;;;;;;;;;;;;26.38;45.66;94787.47;2949370;40;19948;-68
2021/08/03 08:05:47;;;;;;;;;;;;;;;26.76;44.92;94784.56;2953050;40;19932;-70
2021/08/03 08:07:49;;;;;;;;;;;;;;;27.10;44.58;94786.09;2950491;40;19970;-69
2021/08/03 08:09:51;;;;;;;;;;;;;;;27.28;43.85;94783.00;2950094;40;19959;-71
2021/08/03 08:11:52;;;;;;;;;;;;;;;27.68;43.15;94778.03;2950528;40;19949;-70
2021/08/03 08:13:54;;;;;;;;;;;;;;;28.04;40.95;94778.16;2955375;40;19945;-70
2021/08/03 08:15:56;;;;;;;;;;;;;;;28.13;40.52;94784.63;2951265;40;19968;-70
2021/08/03 08:17:57;;;;;;;;;;;;;;;28.37;40.07;94784.94;2951298;40;19960;-70
2021/08/03 08:19:59;;;;;;;;;;;;;;;28.47;40.45;94782.25;2954254;40;19949;-69
2021/08/03 08:22:00;;;;;;;;;;;;;;;28.14;41.51;94788.97;2947762;40;20028;-69
2021/08/03 08:24:03;;;;;;;;;;;;;;;28.08;41.85;94784.63;2952452;40;19961;-70
2021/08/03 08:26:04;;;;;;;;;;;;;;;27.95;42.03;94786.75;2947405;40;20424;-70
2021/08/03 08:28:06;;;;;;;;;;;;;;;27.98;41.81;94785.41;2950858;40;19945;-71
2021/08/03 08:30:08;;;;;;;;;;;;;;;28.00;40.99;94791.34;2949899;40;19937;-71
2021/08/03 08:32:10;;;;;;;;;;;;;;;27.90;41.14;94794.00;2953402;40;20241;-69
2021/08/03 08:34:13;;;;;;;;;;;;;;;27.98;41.30;94782.72;2954184;40;19967;-71
2021/08/03 08:36:14;;;;;;;;;;;;;;;28.25;40.21;94781.69;2950660;40;19965;-70
2021/08/03 08:38:16;;;;;;;;;;;;;;;28.21;40.16;94786.00;2951660;40;20315;-69
2021/08/03 08:40:18;;;;;;;;;;;;;;;27.90;41.29;94781.38;2953976;40;19944;-70
2021/08/03 08:42:19;;;;;;;;;;;;;;;27.45;41.47;94776.59;2949461;40;20008;-70
2021/08/03 08:44:21;;;;;;;;;;;;;;;27.83;39.78;94771.91;2943747;40;19957;-71
2021/08/03 08:46:22;;;;;;;;;;;;;;;28.05;39.64;94769.00;2955209;40;19941;-72
2021/08/03 08:48:24;;;;;;;;;;;;;;;28.30;39.49;94771.72;2942228;40;19941;-71
2021/08/03 08:50:26;;;;;;;;;;;;;;;28.35;39.54;94779.81;2942513;40;19957;-71
2021/08/03 08:52:27;;;;;;;;;;;;;;;28.74;38.25;94771.22;2954992;40;19955;-71
2021/08/03 08:54:29;;;;;;;;;;;;;;;29.07;37.20;94774.38;2955445;40;19955;-70
2021/08/03 08:56:30;;;;;;;;;;;;;;;28.33;38.37;94779.28;2950952;40;19968;-71
2021/08/03 08:58:33;;;;;;;;;;;;;;;28.33;38.40;94764.97;2953887;40;20193;-71
2021/08/03 09:00:34;;;;;;;;;;;;;;;28.67;37.46;94770.66;2948213;40;19942;-70
2021/08/03 09:02:46;;;;;;;;;;;;;;;28.56;37.80;94769.88;2953900;40;20273;-70
2021/08/03 09:04:56;;;;;;;;;;;;;;;28.68;37.07;94777.69;2941478;40;19941;-76
2021/08/03 09:07:01;;;;;;;;;;;;;;;28.77;35.40;94775.25;2941357;40;19941;-70
2021/08/03 09:09:12;;;;;;;;;;;;;;;29.08;35.35;94769.78;2951455;40;19968;-71
2021/08/03 09:11:15;;;;;;;;;;;;;;;29.12;35.33;94766.31;2947162;40;20005;-69
2021/08/03 09:13:16;;;;;;;;;;;;;;;28.98;34.64;94770.63;2952460;40;19993;-72
2021/08/03 09:15:18;;;;;;;;;;;;;;;28.81;34.59;94772.84;2953893;40;19945;-69
2021/08/03 09:17:29;;;;;;;;;;;;;;;28.72;34.24;94764.50;2949957;40;19933;-69
2021/08/03 09:19:35;;;;;;;;;;;;;;;28.86;34.62;94770.91;2947146;40;19937;-70
2021/08/03 09:21:36;;;;;;;;;;;;;;;29.21;34.38;94769.25;2949649;40;19938;-70
2021/08/03 09:23:40;;;;;;;;;;;;;;;29.49;32.72;94759.72;2948679;40;20026;-70
2021/08/03 09:25:55;;;;;;;;;;;;;;;29.72;29.75;94758.28;2941512;40;19938;-68
2021/08/03 09:28:22;;;;;;;;;;;;;;;29.75;29.78;94765.84;2951622;40;20031;-71
2021/08/03 09:30:24;;;;;;;;;;;;;;;29.23;29.40;94752.78;2949003;40;19972;-70
2021/08/03 09:32:33;;;;;;;;;;;;;;;29.32;29.38;94751.97;2951456;40;19949;-70
2021/08/03 09:34:34;;;;;;;;;;;;;;;29.77;28.35;94749.34;2943147;40;20196;-69
2021/08/03 09:37:05;;;;;;;;;;;;;;;29.93;29.70;94747.38;2951490;40;19944;-71
2021/08/03 09:39:07;;;;;;;;;;;;;;;29.59;30.28;94738.06;2947642;40;20228;-71
2021/08/03 09:41:09;;;;;;;;;;;;;;;29.21;30.27;94739.56;2951433;40;20022;-69
2021/08/03 09:43:11;;;;;;;;;;;;;;;29.47;30.09;94744.88;2952508;40;19971;-69
2021/08/03 09:45:13;;;;;;;;;;;;;;;29.28;30.78;94742.00;2953076;40;20030;-68
2021/08/03 09:47:15;;;;;;;;;;;;;;;29.65;30.75;94741.56;2943385;40;20011;-69
2021/08/03 09:49:17;;;;;;;;;;;;;;;29.87;30.02;94740.38;2950810;40;20361;-70
2021/08/03 09:51:18;;;;;;;;;;;;;;;29.94;28.77;94749.81;2950279;40;19947;-69
2021/08/03 09:53:35;;;;;;;;;;;;;;;29.86;29.27;94742.28;2941814;40;20043;-70
2021/08/03 09:55:37;;;;;;;;;;;;;;;29.69;29.13;94734.53;2950810;40;20021;-69
2021/08/03 09:57:39;;;;;;;;;;;;;;;29.69;28.69;94737.25;2941511;40;20221;-70
2021/08/03 09:59:41;;;;;;;;;;;;;;;30.05;28.57;94731.63;2950119;40;20183;-69
2021/08/03 10:01:44;;;;;;;;;;;;;;;30.34;27.75;94729.00;2948303;40;19960;-70
2021/08/03 10:03:46;;;;;;;;;;;;;;;30.34;27.28;94737.09;2944192;40;19937;-69
2021/08/03 10:05:48;;;;;;;;;;;;;;;30.14;27.37;94738.03;2949079;40;19957;-69
2021/08/03 10:07:49;;;;;;;;;;;;;;;30.18;27.79;94739.09;2950057;40;19945;-68
2021/08/03 10:09:51;;;;;;;;;;;;;;;30.14;28.29;94738.03;2949026;40;20013;-69
2021/08/03 10:11:53;;;;;;;;;;;;;;;30.01;28.43;94730.56;2950764;40;19941;-70
2021/08/03 10:13:59;;;;;;;;;;;;;;;30.31;28.02;94740.38;2944018;40;20218;-71
2021/08/03 10:16:01;;;;;;;;;;;;;;;30.10;27.18;94737.00;2949363;40;20038;-69
2021/08/03 10:18:03;;;;;;;;;;;;;;;30.19;26.24;94729.09;2950685;40;19941;-69
2021/08/03 10:20:05;;;;;;;;;;;;;;;30.30;26.14;94719.03;2953955;40;19945;-70
2021/08/03 10:22:21;;;;;;;;;;;;;;;30.58;26.34;94715.53;2945551;40;19941;-81
2021/08/03 10:24:40;;;;;;;;;;;;;;;30.97;26.55;94711.94;2949056;40;19973;-80
2021/08/03 10:27:00;;;;;;;;;;;;;;;31.16;26.25;94703.88;2947667;40;19949;-80
2021/08/03 10:29:21;;;;;;;;;;;;;;;31.37;25.91;94714.47;2948501;40;19941;-79
2021/08/03 10:31:35;;;;;;;;;;;;;;;31.32;24.95;94715.34;2947969;40;19937;-80
2021/08/03 10:33:39;;;;;;;;;;;;;;;30.85;25.48;94714.22;2952064;40;20005;-80
2021/08/03 10:35:40;;;;;;;;;;;;;;;30.68;26.21;94717.34;2950019;40;19965;-83
2021/08/03 10:37:57;;;;;;;;;;;;;;;30.92;26.26;94712.00;2952966;40;19949;-81
2021/08/03 10:39:59;;;;;;;;;;;;;;;31.13;25.97;94709.06;2952913;40;19941;-81
2021/08/03 10:42:00;;;;;;;;;;;;;;;31.46;25.83;94706.53;2953435;40;19941;-83
2021/08/03 10:44:04;;;;;;;;;;;;;;;31.60;25.58;94708.22;2950733;40;19945;-81